Time;durP1;ratioP1;P1;durP2;ratioP2;P2;SDS_P1;SDS_P2;PMS_P1;PMS_P2;Temp;Humidity;BMP_temperature;BMP_pressure;BME280_temperature;BME280_humidity;BME280_pressure;Samples;Min_cycle;Max_cycle;Signal;HPM_P1;HPM_P2
2021/03/28 00:01:02;;;;;;;5.43;4.95;;;30.30;91.30;;;;;;4981821;28;20242;-50
2021/03/28 00:03:38;;;;;;;4.82;4.43;;;30.30;91.30;;;;;;5016683;28;20222;-51
2021/03/28 00:06:18;;;;;;;5.68;5.07;;;30.40;91.40;;;;;;4980518;28;20270;-49
2021/03/28 00:09:03;;;;;;;5.70;5.10;;;30.40;91.60;;;;;;4982751;28;20950;-50
2021/03/28 00:11:33;;;;;;;6.43;5.10;;;30.40;91.60;;;;;;4925221;29;20214;-50
2021/03/28 00:14:04;;;;;;;5.85;5.00;;;30.40;91.60;;;;;;4923094;29;20210;-51
2021/03/28 00:16:46;;;;;;;6.32;5.72;;;30.50;91.70;;;;;;4956833;28;20213;-49
2021/03/28 00:19:23;;;;;;;5.72;4.82;;;30.50;92.00;;;;;;4984426;28;20258;-48
2021/03/28 00:21:55;;;;;;;6.65;5.95;;;30.60;92.00;;;;;;4984660;28;20204;-48
2021/03/28 00:24:28;;;;;;;6.45;5.78;;;30.60;91.90;;;;;;4946494;28;20236;-48
2021/03/28 00:27:13;;;;;;;10.18;5.85;;;30.70;92.00;;;;;;4948912;29;20221;-53
2021/03/28 00:29:51;;;;;;;6.65;5.35;;;30.70;92.10;;;;;;4984681;28;20207;-50
2021/03/28 00:32:23;;;;;;;6.15;5.40;;;30.80;92.20;;;;;;5007303;28;20212;-51
2021/03/28 00:34:54;;;;;;;7.28;5.97;;;30.80;92.10;;;;;;5006225;28;20208;-50
2021/03/28 00:37:26;;;;;;;8.57;7.68;;;30.90;92.20;;;;;;5028841;28;20271;-51
2021/03/28 00:39:59;;;;;;;6.97;5.63;;;30.90;92.20;;;;;;5047100;28;20217;-54
2021/03/28 00:42:34;;;;;;;5.70;5.03;;;31.00;92.10;;;;;;5044311;28;20245;-51
2021/03/28 00:45:15;;;;;;;7.07;5.50;;;31.00;92.10;;;;;;4969962;28;20764;-55
2021/03/28 00:47:46;;;;;;;5.72;5.13;;;31.00;92.00;;;;;;4969878;28;20612;-52
2021/03/28 00:50:29;;;;;;;7.40;5.72;;;31.10;91.90;;;;;;4978436;28;20228;-52
2021/03/28 00:53:00;;;;;;;7.00;6.30;;;31.10;91.90;;;;;;4926883;29;20243;-49
2021/03/28 00:55:33;;;;;;;6.55;5.00;;;31.20;91.90;;;;;;4947171;28;20749;-53
2021/03/28 00:58:09;;;;;;;7.30;5.20;;;31.30;91.90;;;;;;4965799;28;20201;-54
2021/03/28 01:00:53;;;;;;;7.05;5.93;;;31.30;91.80;;;;;;4966131;28;20388;-58
2021/03/28 01:03:33;;;;;;;6.80;5.75;;;31.40;91.90;;;;;;4965959;28;20259;-52
2021/03/28 01:06:14;;;;;;;6.53;5.47;;;31.40;91.80;;;;;;4933847;29;20623;-49
2021/03/28 01:08:52;;;;;;;6.80;5.47;;;31.50;91.70;;;;;;4939119;29;20288;-49
2021/03/28 01:11:46;;;;;;;8.52;5.97;;;31.60;91.60;;;;;;4931552;29;20266;-51
2021/03/28 01:14:23;;;;;;;6.30;5.07;;;31.60;91.40;;;;;;4938629;29;20206;-49
2021/03/28 01:17:21;;;;;;;6.20;4.97;;;31.70;91.40;;;;;;4923557;29;20228;-51
2021/03/28 01:20:20;;;;;;;8.57;5.85;;;31.80;91.50;;;;;;4908775;29;20600;-49
2021/03/28 01:23:06;;;;;;;5.15;4.68;;;31.80;91.40;;;;;;4872819;29;20918;-48
2021/03/28 01:25:58;;;;;;;6.97;5.70;;;31.90;91.20;;;;;;4909442;29;20210;-52
2021/03/28 01:28:30;;;;;;;7.78;5.78;;;31.90;90.90;;;;;;4907824;29;20231;-50
2021/03/28 01:31:14;;;;;;;6.40;5.75;;;32.00;90.90;;;;;;4905925;29;20198;-49
2021/03/28 01:33:46;;;;;;;8.55;5.72;;;32.10;90.90;;;;;;4908609;29;20198;-50
2021/03/28 01:36:22;;;;;;;8.05;6.25;;;32.10;90.90;;;;;;4915668;29;20246;-54
2021/03/28 01:39:00;;;;;;;7.55;6.07;;;32.20;90.60;;;;;;4945076;29;20241;-48
2021/03/28 01:41:33;;;;;;;9.00;7.13;;;32.20;90.50;;;;;;4968156;28;20278;-48
2021/03/28 01:44:10;;;;;;;9.65;6.57;;;32.30;90.00;;;;;;4979431;28;20192;-50
2021/03/28 01:46:51;;;;;;;7.60;6.38;;;32.30;88.90;;;;;;5001434;28;20643;-48
2021/03/28 01:49:29;;;;;;;7.38;5.70;;;32.30;89.10;;;;;;4951053;28;20688;-49
2021/03/28 01:52:07;;;;;;;6.95;6.15;;;32.40;88.60;;;;;;4949352;28;20308;-50
2021/03/28 01:54:44;;;;;;;7.32;5.75;;;32.40;88.00;;;;;;4949303;28;20209;-48
2021/03/28 01:57:18;;;;;;;7.50;5.97;;;32.50;88.30;;;;;;4952096;28;20222;-49
2021/03/28 02:00:16;;;;;;;8.60;6.47;;;32.50;88.50;;;;;;4955884;28;20267;-50
2021/03/28 02:02:54;;;;;;;14.57;6.72;;;32.50;87.20;;;;;;4945856;29;20682;-48
2021/03/28 02:05:29;;;;;;;10.30;6.75;;;32.60;85.50;;;;;;4926944;29;20220;-49
2021/03/28 02:08:11;;;;;;;9.63;6.93;;;32.60;85.60;;;;;;4927117;29;20232;-50
2021/03/28 02:10:52;;;;;;;7.45;6.25;;;32.60;84.30;;;;;;4926949;29;20198;-49
2021/03/28 02:13:28;;;;;;;7.80;5.47;;;32.60;84.90;;;;;;4899628;29;20608;-55
2021/03/28 02:16:08;;;;;;;8.52;6.00;;;32.70;85.80;;;;;;4918994;29;20205;-52
2021/03/28 02:19:10;;;;;;;7.30;5.85;;;32.70;85.60;;;;;;4884955;29;20325;-52
2021/03/28 02:21:53;;;;;;;9.43;6.82;;;32.80;85.50;;;;;;4883868;29;20213;-51
2021/03/28 02:24:29;;;;;;;8.23;6.38;;;32.90;85.00;;;;;;4880335;29;20347;-53
2021/03/28 02:27:09;;;;;;;10.30;8.05;;;32.90;86.30;;;;;;4893360;29;20257;-49
2021/03/28 02:29:46;;;;;;;8.35;6.70;;;33.00;83.70;;;;;;4886347;29;20209;-50
2021/03/28 02:32:43;;;;;;;8.20;6.68;;;33.00;84.60;;;;;;4944096;28;20207;-51
2021/03/28 02:35:17;;;;;;;8.43;6.82;;;33.10;84.30;;;;;;4942209;28;20229;-52
2021/03/28 02:37:56;;;;;;;7.40;6.20;;;33.20;83.50;;;;;;5011764;28;20249;-52
2021/03/28 02:40:36;;;;;;;7.63;5.97;;;33.20;82.80;;;;;;5012585;28;20698;-50
2021/03/28 02:43:08;;;;;;;8.77;6.88;;;33.30;83.30;;;;;;4948312;28;20205;-53
2021/03/28 02:45:40;;;;;;;8.02;6.65;;;33.40;82.90;;;;;;4945622;29;20565;-53
2021/03/28 02:48:32;;;;;;;9.07;6.65;;;33.50;82.90;;;;;;4945863;28;20705;-52
2021/03/28 02:51:38;;;;;;;8.63;7.43;;;33.50;80.40;;;;;;4982197;28;20323;-53
2021/03/28 02:54:23;;;;;;;7.57;6.78;;;33.50;80.00;;;;;;4968776;28;20231;-51
2021/03/28 02:57:11;;;;;;;7.70;6.88;;;33.60;80.50;;;;;;4991778;28;20691;-50
2021/03/28 02:59:54;;;;;;;8.23;6.75;;;33.70;81.10;;;;;;4949858;28;20226;-51
2021/03/28 03:02:59;;;;;;;6.43;5.82;;;33.80;81.00;;;;;;4909107;29;20254;-55
2021/03/28 03:06:07;;;;;;;8.95;6.22;;;33.90;80.80;;;;;;4897873;29;20254;-51
2021/03/28 03:08:41;;;;;;;8.45;7.55;;;34.00;79.90;;;;;;4864174;29;20247;-52
2021/03/28 03:11:45;;;;;;;7.50;6.78;;;34.10;77.80;;;;;;4893543;29;20705;-54
2021/03/28 03:14:45;;;;;;;9.52;7.10;;;34.10;78.50;;;;;;4908568;29;20201;-49
2021/03/28 03:17:43;;;;;;;8.30;6.55;;;34.20;76.30;;;;;;4894136;29;20352;-49
2021/03/28 03:20:25;;;;;;;7.05;5.32;;;34.20;75.60;;;;;;4915831;29;20225;-49
2021/03/28 03:23:39;;;;;;;6.88;5.82;;;34.30;77.40;;;;;;4943541;29;20197;-52
2021/03/28 03:26:46;;;;;;;8.07;5.18;;;34.40;78.00;;;;;;4987953;28;20254;-51
2021/03/28 03:29:37;;;;;;;8.82;6.75;;;34.50;78.30;;;;;;5033980;28;20544;-49
2021/03/28 03:32:35;;;;;;;7.32;5.70;;;34.60;77.40;;;;;;5034433;28;20237;-50
2021/03/28 03:35:13;;;;;;;9.00;5.95;;;34.80;74.70;;;;;;5040598;28;20205;-49
2021/03/28 03:37:54;;;;;;;5.50;4.93;;;34.90;75.90;;;;;;5067076;28;20189;-48
2021/03/28 03:40:51;;;;;;;5.95;5.35;;;35.00;76.20;;;;;;5071930;28;20886;-49
2021/03/28 03:43:52;;;;;;;5.80;5.25;;;35.20;75.20;;;;;;5062845;28;20217;-52
2021/03/28 03:46:38;;;;;;;8.63;5.85;;;35.30;73.70;;;;;;5068589;28;20225;-48
2021/03/28 03:49:32;;;;;;;7.32;6.45;;;35.30;72.90;;;;;;5056677;28;20209;-49
2021/03/28 03:52:11;;;;;;;8.10;6.25;;;35.50;72.90;;;;;;5065316;28;20214;-48
2021/03/28 03:54:50;;;;;;;6.32;5.63;;;35.50;72.40;;;;;;5063698;28;20194;-49
2021/03/28 03:57:27;;;;;;;6.22;5.38;;;35.60;73.20;;;;;;5051054;28;20650;-49
2021/03/28 04:00:04;;;;;;;8.40;7.60;;;35.70;73.50;;;;;;5010591;28;20270;-50
2021/03/28 04:02:39;;;;;;;7.65;6.57;;;35.70;72.50;;;;;;5010031;28;20191;-48
2021/03/28 04:05:25;;;;;;;8.23;6.60;;;35.70;72.50;;;;;;5011682;28;20218;-48
2021/03/28 04:08:14;;;;;;;6.03;5.30;;;35.80;71.70;;;;;;5010794;28;20208;-49
2021/03/28 04:10:48;;;;;;;11.45;7.07;;;35.90;71.80;;;;;;4994217;28;20204;-48
2021/03/28 04:13:35;;;;;;;7.88;6.70;;;35.90;69.30;;;;;;4988299;28;20208;-49
2021/03/28 04:16:25;;;;;;;8.55;7.20;;;35.90;70.20;;;;;;4991280;28;20695;-48
2021/03/28 04:19:16;;;;;;;7.93;7.13;;;36.00;69.50;;;;;;4986477;28;20208;-48
2021/03/28 04:22:01;;;;;;;8.05;6.30;;;36.00;70.10;;;;;;5001102;28;20695;-48
2021/03/28 04:24:35;;;;;;;11.85;7.07;;;36.00;69.40;;;;;;4964627;28;20213;-48
2021/03/28 04:27:22;;;;;;;6.88;6.03;;;36.00;70.20;;;;;;4965740;28;20224;-48
2021/03/28 04:29:52;;;;;;;6.88;5.72;;;36.00;68.70;;;;;;4959597;28;20193;-48
2021/03/28 04:32:41;;;;;;;7.07;6.05;;;36.10;69.70;;;;;;4990694;28;20208;-49
2021/03/28 04:35:31;;;;;;;9.80;5.95;;;36.10;69.60;;;;;;4957568;28;20216;-50
2021/03/28 04:38:21;;;;;;;8.18;6.00;;;36.10;70.00;;;;;;4913315;29;20247;-48
2021/03/28 04:41:01;;;;;;;7.68;5.90;;;36.20;70.50;;;;;;4918730;29;20284;-48
2021/03/28 04:44:12;;;;;;;5.93;5.32;;;36.30;69.80;;;;;;4814836;29;20228;-49
2021/03/28 04:47:15;;;;;;;8.25;6.00;;;36.40;70.00;;;;;;4803212;29;20615;-48
2021/03/28 04:49:58;;;;;;;7.65;6.22;;;36.50;69.80;;;;;;4847500;29;20733;-51
2021/03/28 04:53:09;;;;;;;7.22;5.43;;;36.50;69.10;;;;;;4854624;29;20205;-50
2021/03/28 04:56:26;;;;;;;8.75;6.50;;;36.50;68.30;;;;;;4824899;29;20261;-48
2021/03/28 04:59:13;;;;;;;7.28;5.47;;;36.50;68.90;;;;;;4866845;29;20227;-48
2021/03/28 05:01:56;;;;;;;8.32;5.80;;;36.40;68.70;;;;;;4922381;28;20232;-48
2021/03/28 05:04:56;;;;;;;7.28;6.03;;;36.30;69.10;;;;;;4891244;29;20238;-49
2021/03/28 05:07:55;;;;;;;9.68;5.97;;;36.20;69.30;;;;;;4915282;28;20227;-54
2021/03/28 05:10:47;;;;;;;5.15;4.65;;;36.20;68.30;;;;;;4999217;28;20298;-48
2021/03/28 05:14:01;;;;;;;6.38;4.78;;;36.10;69.70;;;;;;4948148;29;20260;-50
2021/03/28 05:17:07;;;;;;;8.05;5.40;;;36.10;70.10;;;;;;4866578;29;20224;-48
2021/03/28 05:19:58;;;;;;;6.45;4.80;;;36.10;69.80;;;;;;4948069;29;20654;-48
2021/03/28 05:23:01;;;;;;;7.20;5.93;;;36.20;69.70;;;;;;4891454;29;20223;-48
2021/03/28 05:25:41;;;;;;;6.72;6.03;;;36.20;69.10;;;;;;4890186;29;20207;-48
2021/03/28 05:29:05;;;;;;;7.00;6.40;;;36.30;68.30;;;;;;4893106;29;20233;-49
2021/03/28 05:32:19;;;;;;;7.15;5.90;;;36.40;68.60;;;;;;4907922;29;20218;-48
2021/03/28 05:35:22;;;;;;;7.32;6.63;;;36.50;68.30;;;;;;4903832;28;20208;-48
2021/03/28 05:38:16;;;;;;;7.82;7.07;;;36.60;67.30;;;;;;4966560;28;20196;-49
2021/03/28 05:41:11;;;;;;;8.02;6.47;;;36.80;68.20;;;;;;4996254;28;20229;-49
2021/03/28 05:44:12;;;;;;;7.70;6.55;;;36.80;67.70;;;;;;5031614;28;20217;-51
2021/03/28 05:47:06;;;;;;;7.90;7.10;;;36.90;66.50;;;;;;4982327;28;20309;-50
2021/03/28 05:49:59;;;;;;;9.45;8.45;;;37.00;65.00;;;;;;4964593;28;20217;-50
2021/03/28 05:53:05;;;;;;;9.43;7.65;;;37.10;66.20;;;;;;4906802;29;20586;-48
2021/03/28 05:56:28;;;;;;;7.15;6.53;;;37.10;66.20;;;;;;4895606;29;20210;-48
2021/03/28 05:59:14;;;;;;;7.22;6.50;;;37.20;66.40;;;;;;4874178;29;20279;-48
2021/03/28 06:02:06;;;;;;;7.82;6.80;;;37.30;65.30;;;;;;4914796;29;20240;-49
2021/03/28 06:05:11;;;;;;;6.65;5.93;;;37.40;65.50;;;;;;4894510;29;20267;-49
2021/03/28 06:08:17;;;;;;;6.60;5.35;;;37.40;66.40;;;;;;4868670;29;20242;-50
2021/03/28 06:11:21;;;;;;;5.50;4.57;;;37.50;65.20;;;;;;4919490;28;20213;-50
2021/03/28 06:14:31;;;;;;;6.28;4.72;;;37.50;64.70;;;;;;4965736;28;20425;-48
2021/03/28 06:17:25;;;;;;;5.13;4.60;;;37.50;64.20;;;;;;5016576;28;20223;-49
2021/03/28 06:20:10;;;;;;;6.38;4.78;;;37.50;63.20;;;;;;5041333;28;20205;-48
2021/03/28 06:23:12;;;;;;;4.20;3.80;;;37.50;62.90;;;;;;5028032;28;20206;-48
2021/03/28 06:26:25;;;;;;;5.40;4.45;;;37.50;63.30;;;;;;5018661;28;20873;-48
2021/03/28 06:29:44;;;;;;;6.30;4.20;;;37.50;62.80;;;;;;5027601;28;20230;-50
2021/03/28 06:32:34;;;;;;;4.80;3.45;;;37.50;62.20;;;;;;5059444;28;20649;-49
2021/03/28 06:35:36;;;;;;;4.15;3.30;;;37.50;61.70;;;;;;5002564;28;20216;-49
2021/03/28 06:38:35;;;;;;;4.32;3.47;;;37.50;61.60;;;;;;5005270;28;20206;-50
2021/03/28 06:41:13;;;;;;;4.65;3.70;;;37.50;61.40;;;;;;4984915;28;20215;-50
2021/03/28 06:44:09;;;;;;;5.43;3.50;;;37.50;60.40;;;;;;4963503;28;20292;-50
2021/03/28 06:47:13;;;;;;;4.30;3.88;;;37.50;60.50;;;;;;4930475;29;20205;-49
2021/03/28 06:50:09;;;;;;;3.70;3.40;;;37.40;60.80;;;;;;4951075;28;20217;-48
2021/03/28 06:53:10;;;;;;;4.50;3.53;;;37.40;61.20;;;;;;4948733;28;20208;-49
2021/03/28 06:55:43;;;;;;;4.80;3.58;;;37.40;61.50;;;;;;4888654;28;20299;-48
2021/03/28 06:58:51;;;;;;;6.00;4.32;;;37.40;62.10;;;;;;4948297;28;20949;-48
2021/03/28 07:02:02;;;;;;;6.82;4.20;;;37.40;60.80;;;;;;4972075;28;20263;-48
2021/03/28 07:05:09;;;;;;;6.32;3.58;;;37.40;61.40;;;;;;4969135;28;20216;-46
2021/03/28 07:08:14;;;;;;;4.78;3.75;;;37.40;61.50;;;;;;5006752;28;20218;-46
2021/03/28 07:11:12;;;;;;;6.30;3.92;;;37.40;61.70;;;;;;4947461;28;20317;-47
2021/03/28 07:14:20;;;;;;;4.57;4.18;;;37.50;60.90;;;;;;4913366;29;20210;-47
2021/03/28 07:17:12;;;;;;;5.45;3.97;;;37.50;60.60;;;;;;4943536;28;20828;-48
2021/03/28 07:20:02;;;;;;;4.07;3.40;;;37.50;60.60;;;;;;4967285;28;20205;-51
2021/03/28 07:23:01;;;;;;;4.30;3.35;;;37.50;61.80;;;;;;4967783;28;20239;-48
2021/03/28 07:25:52;;;;;;;4.43;4.03;;;37.50;62.10;;;;;;4907274;29;20203;-48
2021/03/28 07:28:54;;;;;;;5.63;4.10;;;37.40;62.00;;;;;;4922456;29;20289;-48
2021/03/28 07:31:49;;;;;;;4.57;3.92;;;37.50;62.00;;;;;;4868744;29;20241;-49
2021/03/28 07:35:06;;;;;;;5.63;4.45;;;37.50;62.30;;;;;;4825319;29;20629;-48
2021/03/28 07:38:09;;;;;;;6.50;4.07;;;37.50;62.00;;;;;;4903051;29;20375;-51
2021/03/28 07:41:07;;;;;;;4.95;4.07;;;37.50;61.60;;;;;;4929709;29;20213;-49
2021/03/28 07:44:04;;;;;;;5.68;4.43;;;37.40;61.60;;;;;;4929079;29;20328;-48
2021/03/28 07:46:53;;;;;;;7.00;4.63;;;37.40;61.50;;;;;;4928823;29;20232;-48
2021/03/28 07:50:14;;;;;;;6.97;3.78;;;37.40;61.90;;;;;;4898195;29;20249;-48
2021/03/28 07:52:58;;;;;;;4.93;4.20;;;37.30;61.80;;;;;;4914995;29;20679;-49
2021/03/28 07:55:30;;;;;;;6.85;3.80;;;37.20;61.20;;;;;;4948714;28;20545;-49
2021/03/28 07:58:26;;;;;;;7.20;4.25;;;37.20;62.10;;;;;;4992933;28;20202;-50
2021/03/28 08:01:25;;;;;;;5.85;3.70;;;37.10;62.20;;;;;;5045059;28;20234;-50
2021/03/28 08:04:21;;;;;;;4.57;3.72;;;37.10;62.00;;;;;;5025188;28;20200;-51
2021/03/28 08:07:29;;;;;;;6.05;3.92;;;37.10;62.00;;;;;;4996142;28;20203;-48
2021/03/28 08:10:31;;;;;;;3.67;3.30;;;37.00;62.20;;;;;;5006775;28;20199;-49
2021/03/28 08:13:24;;;;;;;5.45;4.07;;;37.00;62.80;;;;;;4994538;28;20198;-50
2021/03/28 08:16:08;;;;;;;7.07;4.50;;;37.10;62.90;;;;;;4936300;28;20208;-48
2021/03/28 08:18:41;;;;;;;6.03;4.38;;;37.00;62.80;;;;;;4923180;29;20202;-50
2021/03/28 08:21:31;;;;;;;6.13;4.50;;;37.00;63.10;;;;;;4924807;29;20574;-48
2021/03/28 08:24:22;;;;;;;5.95;4.55;;;37.00;63.00;;;;;;4937281;28;20312;-48
2021/03/28 08:27:44;;;;;;;9.65;4.00;;;37.10;63.10;;;;;;4929175;29;20210;-48
2021/03/28 08:30:35;;;;;;;5.03;3.92;;;37.10;63.30;;;;;;4929456;29;20210;-50
2021/03/28 08:33:37;;;;;;;6.35;3.88;;;37.10;63.30;;;;;;4918085;29;20213;-48
2021/03/28 08:37:00;;;;;;;4.07;3.40;;;37.10;63.60;;;;;;4882061;29;20235;-49
2021/03/28 08:39:45;;;;;;;6.20;3.75;;;37.00;63.70;;;;;;4859729;29;20207;-50
2021/03/28 08:42:43;;;;;;;4.78;3.05;;;37.10;63.60;;;;;;4847643;29;20586;-49
2021/03/28 08:45:29;;;;;;;4.28;3.42;;;37.10;63.60;;;;;;4835614;29;20217;-48
2021/03/28 08:48:38;;;;;;;6.60;3.97;;;37.10;63.70;;;;;;4853084;29;20292;-50
2021/03/28 08:51:24;;;;;;;6.03;4.32;;;37.10;63.80;;;;;;4876982;29;20235;-49
2021/03/28 08:54:04;;;;;;;5.30;3.75;;;37.20;63.20;;;;;;4853028;29;20259;-48
2021/03/28 08:56:56;;;;;;;5.45;3.60;;;37.20;63.10;;;;;;4800625;29;20670;-48
2021/03/28 08:59:42;;;;;;;5.88;4.68;;;37.20;63.20;;;;;;4835919;29;20237;-50
2021/03/28 09:02:24;;;;;;;7.00;4.15;;;37.20;62.00;;;;;;4853833;29;20213;-48
2021/03/28 09:05:14;;;;;;;5.03;4.00;;;37.20;61.40;;;;;;4853782;29;20224;-48
2021/03/28 09:07:53;;;;;;;5.00;4.10;;;37.20;61.50;;;;;;4872112;29;20247;-49
2021/03/28 09:10:31;;;;;;;5.22;4.00;;;37.10;61.00;;;;;;4936711;28;20233;-49
2021/03/28 09:13:24;;;;;;;4.75;3.60;;;37.00;61.50;;;;;;4860249;29;20197;-48
2021/03/28 09:16:02;;;;;;;4.55;3.60;;;36.90;62.80;;;;;;4857058;29;20201;-48
2021/03/28 09:18:49;;;;;;;7.47;4.82;;;37.00;61.90;;;;;;4823176;29;20232;-50
2021/03/28 09:21:30;;;;;;;5.40;4.20;;;36.90;61.60;;;;;;4827430;29;20204;-48
2021/03/28 09:24:12;;;;;;;5.47;3.45;;;36.80;61.70;;;;;;4811351;29;20228;-50
2021/03/28 09:26:49;;;;;;;4.45;3.50;;;36.80;62.40;;;;;;4775646;29;20208;-49
2021/03/28 09:29:43;;;;;;;4.50;3.72;;;36.70;62.60;;;;;;4741762;30;20309;-48
2021/03/28 09:32:45;;;;;;;6.30;3.95;;;36.70;62.80;;;;;;4738875;30;20209;-49
2021/03/28 09:35:38;;;;;;;4.22;3.83;;;36.70;62.90;;;;;;4708319;30;20210;-48
2021/03/28 09:38:12;;;;;;;4.55;3.45;;;36.70;62.90;;;;;;4710272;30;20218;-48
2021/03/28 09:40:44;;;;;;;7.30;4.20;;;36.60;62.90;;;;;;4695022;30;20210;-48
2021/03/28 09:43:38;;;;;;;3.83;3.38;;;36.60;63.20;;;;;;4713916;30;20251;-49
2021/03/28 09:46:33;;;;;;;6.60;3.60;;;36.60;63.70;;;;;;4765442;30;20840;-48
2021/03/28 09:49:34;;;;;;;6.25;4.38;;;36.60;63.90;;;;;;4806299;29;20783;-52
2021/03/28 09:52:38;;;;;;;5.53;4.03;;;36.60;63.90;;;;;;4847253;29;20597;-50
2021/03/28 09:55:37;;;;;;;5.88;4.35;;;36.60;63.70;;;;;;4871590;29;20586;-47
2021/03/28 09:58:26;;;;;;;7.20;4.20;;;36.60;63.80;;;;;;4874855;29;20203;-51
2021/03/28 10:01:34;;;;;;;5.30;3.95;;;36.60;63.90;;;;;;4905230;29;20298;-49
2021/03/28 10:04:08;;;;;;;5.18;3.78;;;36.50;63.80;;;;;;4906442;29;20278;-51
2021/03/28 10:06:38;;;;;;;7.18;4.07;;;36.50;63.50;;;;;;4964713;28;20244;-47
2021/03/28 10:09:16;;;;;;;5.63;4.05;;;36.50;63.60;;;;;;4976599;28;20227;-48
2021/03/28 10:11:51;;;;;;;6.32;3.40;;;36.50;63.80;;;;;;4963222;28;20284;-48
2021/03/28 10:14:25;;;;;;;6.07;3.60;;;36.50;64.40;;;;;;4906872;29;20203;-49
2021/03/28 10:17:18;;;;;;;5.53;4.00;;;36.50;64.60;;;;;;4905057;29;20206;-49
2021/03/28 10:19:49;;;;;;;5.72;4.00;;;36.50;64.80;;;;;;4906026;29;20199;-48
2021/03/28 10:22:33;;;;;;;5.50;3.92;;;36.40;64.70;;;;;;4871774;29;20272;-48
2021/03/28 10:25:26;;;;;;;6.07;3.75;;;36.40;64.70;;;;;;4873348;29;20758;-50
2021/03/28 10:28:38;;;;;;;6.50;3.47;;;36.40;64.90;;;;;;4870505;29;20713;-49
2021/03/28 10:31:20;;;;;;;5.45;3.70;;;36.40;65.00;;;;;;4816248;29;20260;-48
2021/03/28 10:34:04;;;;;;;5.32;3.40;;;36.50;65.20;;;;;;4780367;30;20288;-47
2021/03/28 10:36:41;;;;;;;4.65;3.25;;;36.50;65.60;;;;;;4812792;29;20213;-48
2021/03/28 10:39:19;;;;;;;5.65;3.28;;;36.70;66.00;;;;;;4856154;29;20593;-48
2021/03/28 10:42:15;;;;;;;3.75;2.88;;;37.10;66.20;;;;;;4871568;29;20231;-48
2021/03/28 10:45:15;;;;;;;4.68;2.35;;;37.50;66.20;;;;;;4827585;29;20305;-48
2021/03/28 10:48:36;;;;;;;4.75;2.83;;;38.10;65.70;;;;;;4830356;29;20301;-48
2021/03/28 10:51:32;;;;;;;3.95;2.70;;;38.60;64.40;;;;;;4852390;29;20248;-50
2021/03/28 10:54:39;;;;;;;4.45;2.67;;;38.90;62.80;;;;;;4899471;29;20214;-47
2021/03/28 10:57:55;;;;;;;4.03;2.95;;;39.10;61.80;;;;;;4942941;29;20298;-51
2021/03/28 11:01:05;;;;;;;3.55;2.90;;;39.20;61.40;;;;;;4886262;29;20334;-48
2021/03/28 11:04:16;;;;;;;4.75;2.80;;;39.30;61.20;;;;;;4834005;29;20218;-49
2021/03/28 11:06:58;;;;;;;4.80;2.90;;;39.40;60.90;;;;;;4832696;29;20710;-49
2021/03/28 11:09:57;;;;;;;4.38;2.60;;;39.40;60.00;;;;;;4899793;29;20237;-48
2021/03/28 11:13:03;;;;;;;5.22;2.97;;;39.20;59.80;;;;;;4891548;29;20216;-48
2021/03/28 11:15:40;;;;;;;5.47;3.47;;;39.00;59.60;;;;;;4903981;29;20258;-48
2021/03/28 11:19:03;;;;;;;5.78;3.55;;;38.80;59.20;;;;;;4941709;28;20486;-48
2021/03/28 11:21:34;;;;;;;4.57;3.22;;;38.50;59.60;;;;;;4989680;28;20202;-51
2021/03/28 11:24:34;;;;;;;4.47;3.17;;;38.20;59.40;;;;;;5022067;28;20681;-51
2021/03/28 11:27:46;;;;;;;6.28;3.30;;;37.90;59.80;;;;;;5031608;28;21006;-51
2021/03/28 11:30:20;;;;;;;5.57;3.50;;;37.50;60.30;;;;;;5064832;28;20251;-51
2021/03/28 11:32:59;;;;;;;4.25;2.92;;;37.20;60.80;;;;;;5063283;28;20194;-50
2021/03/28 11:35:32;;;;;;;5.57;3.17;;;37.00;61.60;;;;;;5021503;28;20221;-50
2021/03/28 11:38:41;;;;;;;5.80;2.97;;;36.70;62.20;;;;;;5022415;28;20199;-51
2021/03/28 11:41:55;;;;;;;4.30;2.83;;;36.50;62.90;;;;;;4970614;28;20200;-51
2021/03/28 11:44:34;;;;;;;6.35;2.85;;;36.30;63.50;;;;;;4980661;28;20212;-51
2021/03/28 11:47:24;;;;;;;5.90;2.83;;;36.10;64.20;;;;;;4947146;28;20230;-52
2021/03/28 11:50:01;;;;;;;4.95;3.13;;;35.90;64.60;;;;;;4961563;28;20235;-53
2021/03/28 11:52:35;;;;;;;4.85;2.92;;;35.70;65.00;;;;;;4906350;29;20261;-50
2021/03/28 11:55:14;;;;;;;4.57;3.10;;;35.60;65.60;;;;;;4905483;29;20250;-52
2021/03/28 11:57:44;;;;;;;4.47;2.90;;;35.50;66.20;;;;;;4868768;29;20630;-50
2021/03/28 12:00:40;;;;;;;5.78;3.97;;;35.30;66.20;;;;;;4853544;29;20240;-54
2021/03/28 12:03:42;;;;;;;6.75;3.72;;;35.30;67.10;;;;;;4837267;29;20221;-52
2021/03/28 12:06:49;;;;;;;5.72;3.88;;;35.10;68.90;;;;;;4870908;29;20207;-50
2021/03/28 12:09:27;;;;;;;5.47;4.30;;;35.00;68.40;;;;;;4890864;29;20703;-51
2021/03/28 12:12:01;;;;;;;5.25;4.45;;;34.80;69.50;;;;;;4915510;29;20628;-54
2021/03/28 12:14:34;;;;;;;7.85;6.38;;;34.70;69.00;;;;;;4942161;29;20369;-50
2021/03/28 12:17:31;;;;;;;7.35;4.45;;;34.50;70.20;;;;;;4932081;29;20229;-51
2021/03/28 12:20:36;;;;;;;6.93;4.85;;;34.40;70.10;;;;;;4900717;29;20233;-50
2021/03/28 12:23:21;;;;;;;6.35;5.15;;;34.30;70.80;;;;;;5015219;28;20767;-50
2021/03/28 12:26:04;;;;;;;9.57;6.40;;;34.20;71.00;;;;;;5049521;28;20197;-54
2021/03/28 12:28:36;;;;;;;9.40;6.47;;;34.10;71.20;;;;;;5049383;28;20569;-51
2021/03/28 12:31:28;;;;;;;7.57;5.72;;;34.10;71.30;;;;;;5009784;28;21551;-51
2021/03/28 12:34:15;;;;;;;8.73;5.20;;;34.00;71.80;;;;;;5034429;28;20202;-54
2021/03/28 12:36:54;;;;;;;9.45;5.18;;;33.90;72.00;;;;;;5042958;28;20213;-53
2021/03/28 12:39:27;;;;;;;7.85;4.95;;;33.90;72.30;;;;;;4982401;28;20212;-52
2021/03/28 12:42:16;;;;;;;5.68;4.30;;;33.90;72.50;;;;;;4987371;28;20212;-52
2021/03/28 12:44:47;;;;;;;5.32;4.43;;;33.80;73.00;;;;;;4987266;28;20212;-52
2021/03/28 12:47:23;;;;;;;5.90;4.60;;;33.80;72.70;;;;;;4986499;28;20216;-49
2021/03/28 12:50:00;;;;;;;6.07;4.45;;;33.70;73.00;;;;;;4987518;28;20212;-51
2021/03/28 12:52:41;;;;;;;5.68;3.75;;;33.70;73.40;;;;;;4987771;28;20341;-54
2021/03/28 12:55:46;;;;;;;6.85;5.32;;;33.70;73.70;;;;;;4999665;28;20218;-50
2021/03/28 12:58:24;;;;;;;8.07;5.22;;;33.60;73.70;;;;;;5027162;28;20191;-51
2021/03/28 13:01:02;;;;;;;10.38;5.80;;;33.60;74.80;;;;;;5024351;28;20242;-51
2021/03/28 13:03:42;;;;;;;8.63;5.80;;;33.60;74.40;;;;;;5037719;28;20210;-50
2021/03/28 13:06:35;;;;;;;8.95;7.07;;;33.50;74.50;;;;;;5067357;28;20236;-51
2021/03/28 13:09:19;;;;;;;7.82;6.20;;;33.50;74.70;;;;;;5059438;28;21042;-51
2021/03/28 13:11:50;;;;;;;7.10;6.15;;;33.40;74.40;;;;;;5064479;28;20312;-52
2021/03/28 13:14:34;;;;;;;9.35;5.70;;;33.40;74.60;;;;;;5066554;28;20233;-52
2021/03/28 13:17:09;;;;;;;9.23;5.82;;;33.40;75.30;;;;;;5066268;28;20645;-50
2021/03/28 13:19:40;;;;;;;8.52;5.47;;;33.30;75.20;;;;;;5029219;28;20909;-50
2021/03/28 13:22:35;;;;;;;6.95;4.93;;;33.30;75.20;;;;;;4974680;28;20220;-52
2021/03/28 13:25:25;;;;;;;8.95;5.93;;;33.20;75.60;;;;;;4973549;28;20219;-52
2021/03/28 13:28:31;;;;;;;10.07;6.00;;;33.20;75.60;;;;;;4942538;29;20862;-50
2021/03/28 13:31:17;;;;;;;8.38;5.82;;;33.20;75.70;;;;;;4933476;29;20252;-52
2021/03/28 13:33:47;;;;;;;7.97;5.40;;;33.20;76.00;;;;;;4923718;29;20228;-52
2021/03/28 13:36:20;;;;;;;12.55;6.13;;;33.10;75.70;;;;;;4888362;29;20237;-50
2021/03/28 13:39:19;;;;;;;8.50;6.00;;;33.10;76.10;;;;;;4879527;29;20208;-50
2021/03/28 13:42:23;;;;;;;7.18;5.00;;;33.10;76.60;;;;;;4846659;29;20240;-54
2021/03/28 13:44:56;;;;;;;8.40;5.00;;;33.00;76.60;;;;;;4853443;29;20239;-51
2021/03/28 13:47:57;;;;;;;9.13;5.75;;;33.00;76.50;;;;;;4867682;29;20933;-52
2021/03/28 13:50:46;;;;;;;8.60;5.65;;;33.00;77.00;;;;;;4861220;29;20226;-49
2021/03/28 13:53:39;;;;;;;9.63;6.47;;;32.90;77.20;;;;;;5014745;28;20206;-51
2021/03/28 13:56:37;;;;;;;10.18;6.70;;;32.90;77.30;;;;;;4981362;28;20251;-51
2021/03/28 13:59:13;;;;;;;9.48;6.20;;;32.90;77.60;;;;;;4982764;28;20204;-52
2021/03/28 14:02:05;;;;;;;8.00;5.95;;;32.80;77.40;;;;;;5036118;28;20225;-53
2021/03/28 14:04:43;;;;;;;9.70;6.32;;;32.80;78.10;;;;;;5043693;28;20318;-54
2021/03/28 14:07:19;;;;;;;8.05;6.78;;;32.80;78.10;;;;;;5043224;28;20953;-50
2021/03/28 14:09:53;;;;;;;9.82;6.18;;;32.70;78.10;;;;;;4919638;29;20221;-52
2021/03/28 14:12:34;;;;;;;9.02;6.53;;;32.70;78.00;;;;;;4922525;29;20242;-50
2021/03/28 14:15:26;;;;;;;10.05;6.00;;;32.70;78.70;;;;;;4889421;29;20200;-50
2021/03/28 14:17:59;;;;;;;6.95;5.25;;;32.70;78.60;;;;;;4888944;29;20211;-55
2021/03/28 14:20:33;;;;;;;8.07;6.22;;;32.70;78.40;;;;;;4908693;29;20216;-50
2021/03/28 14:23:16;;;;;;;9.43;6.43;;;32.70;78.80;;;;;;4927200;29;20294;-54
2021/03/28 14:25:48;;;;;;;8.25;5.43;;;32.60;79.20;;;;;;4888803;29;20695;-55
2021/03/28 14:28:46;;;;;;;6.85;5.25;;;32.60;78.70;;;;;;4889811;29;20215;-55
2021/03/28 14:31:34;;;;;;;5.75;4.82;;;32.60;79.30;;;;;;4889548;29;20718;-51
2021/03/28 14:34:27;;;;;;;7.97;6.00;;;32.60;79.30;;;;;;4927546;28;20208;-50
2021/03/28 14:37:22;;;;;;;7.82;5.70;;;32.50;79.30;;;;;;4927341;29;20206;-53